createdAt,value
2018-08-28T00:00:28.352Z,68.80
2018-08-28T00:01:28.351Z,69.19
2018-08-28T00:02:28.336Z,68.71
2018-08-28T00:03:28.330Z,68.90
2018-08-28T00:04:28.317Z,69.00
2018-08-28T00:05:28.311Z,68.90
2018-08-28T00:06:28.297Z,68.52
2018-08-28T00:07:28.290Z,68.52
2018-08-28T00:08:28.278Z,68.42
2018-08-28T00:09:28.271Z,68.80
2018-08-28T00:10:28.260Z,69.09
2018-08-28T00:11:28.253Z,69.19
2018-08-28T00:12:28.241Z,69.38
2018-08-28T00:13:28.235Z,68.52
2018-08-28T00:14:28.224Z,68.80
2018-08-28T00:15:28.207Z,68.23
2018-08-28T00:16:28.206Z,67.85
2018-08-28T00:17:28.194Z,67.47
2018-08-28T00:18:28.186Z,67.76
2018-08-28T00:19:28.175Z,67.47
2018-08-28T00:20:28.160Z,68.23
2018-08-28T00:21:28.156Z,68.13
2018-08-28T00:22:28.148Z,68.04
2018-08-28T00:23:28.137Z,68.42
2018-08-28T00:24:28.128Z,68.71
2018-08-28T00:25:28.118Z,69.00
2018-08-28T00:26:28.110Z,68.90
2018-08-28T00:27:28.091Z,68.80
2018-08-28T00:28:28.085Z,69.00
2018-08-28T00:29:28.079Z,69.00
2018-08-28T00:30:28.071Z,69.09
2018-08-28T00:31:28.057Z,68.52
2018-08-28T00:32:28.051Z,68.62
2018-08-28T00:33:28.039Z,68.52
2018-08-28T00:34:28.027Z,69.09
2018-08-28T00:35:28.021Z,68.90
2018-08-28T00:36:28.015Z,69.67
2018-08-28T00:37:28.000Z,69.67
2018-08-28T00:38:27.990Z,69.00
2018-08-28T00:39:27.979Z,69.29
2018-08-28T00:40:27.974Z,68.80
2018-08-28T00:41:27.964Z,68.33
2018-08-28T00:42:27.954Z,68.13
2018-08-28T00:43:27.947Z,68.80
2018-08-28T00:44:27.934Z,68.80
2018-08-28T00:45:27.923Z,68.80
2018-08-28T00:46:27.914Z,68.80
2018-08-28T00:47:27.908Z,68.52
2018-08-28T00:48:27.891Z,69.09
2018-08-28T00:49:27.889Z,68.80
2018-08-28T00:50:27.877Z,69.09
2018-08-28T00:51:27.865Z,68.42
2018-08-28T00:52:27.938Z,68.52
2018-08-28T00:53:27.854Z,68.62
2018-08-28T00:54:27.841Z,68.71
2018-08-28T00:55:27.828Z,68.71
2018-08-28T00:56:27.818Z,68.23
2018-08-28T00:57:27.799Z,68.23
2018-08-28T00:58:27.798Z,68.33
2018-08-28T00:59:27.787Z,68.52
2018-08-28T01:00:27.775Z,68.90
2018-08-28T01:01:27.777Z,68.62
2018-08-28T01:02:27.755Z,68.80
2018-08-28T01:03:27.748Z,68.52
2018-08-28T01:04:27.741Z,68.62
2018-08-28T01:05:27.730Z,68.42
2018-08-28T01:06:27.721Z,68.52
2018-08-28T01:07:27.713Z,68.33
2018-08-28T01:08:27.697Z,68.71
2018-08-28T01:09:27.690Z,68.80
2018-08-28T01:10:27.685Z,68.04
2018-08-28T01:11:27.671Z,68.23
2018-08-28T01:12:27.661Z,68.20
2018-08-28T01:13:27.654Z,68.20
2018-08-28T01:14:27.657Z,68.10
2018-08-28T01:15:27.629Z,68.58
2018-08-28T01:16:27.623Z,68.39
2018-08-28T01:17:27.616Z,68.10
2018-08-28T01:18:27.597Z,68.20
2018-08-28T01:19:27.593Z,68.01
2018-08-28T01:20:27.582Z,68.29
2018-08-28T01:21:27.578Z,68.49
2018-08-28T01:22:27.567Z,68.77
2018-08-28T01:23:27.552Z,68.87
2018-08-28T01:24:27.542Z,68.87
2018-08-28T01:25:27.533Z,68.87
2018-08-28T01:26:27.523Z,69.64
2018-08-28T01:27:27.509Z,69.73
2018-08-28T01:28:27.506Z,69.73
2018-08-28T01:29:27.494Z,69.64
2018-08-28T01:30:27.484Z,69.73
2018-08-28T01:31:27.476Z,69.92
2018-08-28T01:32:27.463Z,68.68
2018-08-28T01:33:27.455Z,68.20
2018-08-28T01:34:27.450Z,68.10
2018-08-28T01:35:27.438Z,68.49
2018-08-28T01:36:27.428Z,68.29
2018-08-28T01:37:27.413Z,68.39
2018-08-28T01:38:27.417Z,68.58
2018-08-28T01:39:27.395Z,68.49
2018-08-28T01:40:27.391Z,67.91
2018-08-28T01:41:27.378Z,68.39
2018-08-28T01:42:27.373Z,68.39
2018-08-28T01:43:27.356Z,68.77
2018-08-28T01:44:27.348Z,68.68
2018-08-28T01:45:27.341Z,69.25
2018-08-28T01:46:27.329Z,68.87
2018-08-28T01:47:27.315Z,69.35
2018-08-28T01:48:27.305Z,70.01
2018-08-28T01:49:27.296Z,69.35
2018-08-28T01:50:27.288Z,69.25
2018-08-28T01:51:27.285Z,68.96
2018-08-28T01:52:27.268Z,69.06
2018-08-28T01:53:27.255Z,69.06
2018-08-28T01:54:27.249Z,69.64
2018-08-28T01:55:27.243Z,69.64
2018-08-28T01:56:27.229Z,70.21
2018-08-28T01:57:27.217Z,70.21
2018-08-28T01:58:27.213Z,69.82
2018-08-28T01:59:27.200Z,70.11
2018-08-28T02:00:27.186Z,70.01
2018-08-28T02:01:27.178Z,70.17
2018-08-28T02:02:27.168Z,70.01
2018-08-28T02:03:27.158Z,70.11
2018-08-28T02:04:27.146Z,69.82
2018-08-28T02:05:27.139Z,70.40
2018-08-28T02:06:27.125Z,70.30
2018-08-28T02:07:27.115Z,70.21
2018-08-28T02:08:27.111Z,70.01
2018-08-28T02:09:27.105Z,69.64
2018-08-28T02:10:27.090Z,69.73
2018-08-28T02:11:27.081Z,70.07
2018-08-28T02:12:27.071Z,69.82
2018-08-28T02:13:27.060Z,69.44
2018-08-28T02:14:27.049Z,69.54
2018-08-28T02:15:27.036Z,69.73
2018-08-28T02:16:27.030Z,69.35
2018-08-28T02:17:27.020Z,69.92
2018-08-28T02:18:27.012Z,70.11
2018-08-28T02:19:27.004Z,70.11
2018-08-28T02:20:26.992Z,69.82
2018-08-28T02:21:26.981Z,69.98
2018-08-28T02:22:26.965Z,70.07
2018-08-28T02:23:26.962Z,69.50
2018-08-28T02:24:26.953Z,69.64
2018-08-28T02:25:26.939Z,69.31
2018-08-28T02:26:26.927Z,69.31
2018-08-28T02:27:26.921Z,68.93
2018-08-28T02:28:26.909Z,68.74
2018-08-28T02:29:26.896Z,69.31
2018-08-28T02:30:26.890Z,70.07
2018-08-28T02:31:26.880Z,69.89
2018-08-28T02:32:26.869Z,69.89
2018-08-28T02:33:26.924Z,69.41
2018-08-28T02:34:26.848Z,69.41
2018-08-28T02:35:26.844Z,69.89
2018-08-28T02:36:26.826Z,70.36
2018-08-28T02:37:26.819Z,69.98
2018-08-28T02:38:26.805Z,70.27
2018-08-28T02:39:26.801Z,70.17
2018-08-28T02:40:26.791Z,70.56
2018-08-28T02:41:26.775Z,70.65
2018-08-28T02:42:26.767Z,71.42
2018-08-28T02:43:26.757Z,70.46
2018-08-28T02:44:26.749Z,70.27
2018-08-28T02:45:26.742Z,70.27
2018-08-28T02:46:26.731Z,71.03
2018-08-28T02:47:26.715Z,70.94
2018-08-28T02:48:26.710Z,70.65
2018-08-28T02:49:26.696Z,71.22
2018-08-28T02:50:26.686Z,71.42
2018-08-28T02:51:26.680Z,71.13
2018-08-28T02:52:26.666Z,71.03
2018-08-28T02:53:26.659Z,70.27
2018-08-28T02:54:26.647Z,70.27
2018-08-28T02:55:26.638Z,70.17
2018-08-28T02:56:26.631Z,70.17
2018-08-28T02:57:26.616Z,70.46
2018-08-28T02:58:26.603Z,70.56
2018-08-28T02:59:26.600Z,70.46
2018-08-28T03:00:26.589Z,71.13
2018-08-28T03:01:26.580Z,71.80
2018-08-28T03:02:26.566Z,70.46
2018-08-28T03:03:26.556Z,69.98
2018-08-28T03:04:26.546Z,70.07
2018-08-28T03:05:26.536Z,70.36
2018-08-28T03:06:26.526Z,70.17
2018-08-28T03:07:26.514Z,70.46
2018-08-28T03:08:26.501Z,71.03
2018-08-28T03:09:26.492Z,70.65
2018-08-28T03:10:26.484Z,70.56
2018-08-28T03:11:26.535Z,71.42
2018-08-28T03:12:26.466Z,71.13
2018-08-28T03:13:26.457Z,71.03
2018-08-28T03:14:26.438Z,71.80
2018-08-28T03:15:26.455Z,71.42
2018-08-28T03:16:26.422Z,71.80
2018-08-28T03:17:26.411Z,71.89
2018-08-28T03:18:26.400Z,71.42
2018-08-28T03:19:26.392Z,71.80
2018-08-28T03:20:26.391Z,71.42
2018-08-28T03:21:26.371Z,71.51
2018-08-28T03:22:26.364Z,70.27
2018-08-28T03:23:26.353Z,70.46
2018-08-28T03:24:26.340Z,70.46
2018-08-28T03:25:26.330Z,70.36
2018-08-28T03:26:26.322Z,70.36
2018-08-28T03:27:26.312Z,70.46
2018-08-28T03:28:26.298Z,71.13
2018-08-28T03:29:26.296Z,69.98
2018-08-28T03:30:26.288Z,71.03
2018-08-28T03:31:26.272Z,69.79
2018-08-28T03:32:26.260Z,70.75
2018-08-28T03:33:26.246Z,70.56
2018-08-28T03:34:26.236Z,70.56
2018-08-28T03:35:26.230Z,70.75
2018-08-28T03:36:26.229Z,71.13
2018-08-28T03:37:26.208Z,71.22
2018-08-28T03:38:26.200Z,71.13
2018-08-28T03:39:26.187Z,70.84
2018-08-28T03:40:26.177Z,71.22
2018-08-28T03:41:26.167Z,70.75
2018-08-28T03:42:26.156Z,70.46
2018-08-28T03:43:26.145Z,70.56
2018-08-28T03:44:26.131Z,70.07
2018-08-28T03:45:26.131Z,70.07
2018-08-28T03:46:26.117Z,71.13
2018-08-28T03:47:26.105Z,70.84
2018-08-28T03:48:26.095Z,70.42
2018-08-28T03:49:26.079Z,70.61
2018-08-28T03:50:26.075Z,70.52
2018-08-28T03:51:26.066Z,71.19
2018-08-28T03:52:26.053Z,71.57
2018-08-28T03:53:26.042Z,71.67
2018-08-28T03:54:26.033Z,71.19
2018-08-28T03:55:26.078Z,71.47
2018-08-28T03:56:26.008Z,71.57
2018-08-28T03:57:26.011Z,71.76
2018-08-28T03:58:25.992Z,71.47
2018-08-28T03:59:25.989Z,71.86
2018-08-28T04:00:25.970Z,71.76
2018-08-28T04:01:25.962Z,72.81
2018-08-28T04:02:25.949Z,72.33
2018-08-28T04:03:25.940Z,72.24
2018-08-28T04:04:25.927Z,72.43
2018-08-28T04:05:25.916Z,72.53
2018-08-28T04:06:25.906Z,71.38
2018-08-28T04:07:25.898Z,71.76
2018-08-28T04:08:25.887Z,71.67
2018-08-28T04:09:25.875Z,71.57
2018-08-28T04:10:25.863Z,72.14
2018-08-28T04:11:25.857Z,72.24
2018-08-28T04:12:25.843Z,72.43
2018-08-28T04:13:25.836Z,72.91
2018-08-28T04:14:25.826Z,72.81
2018-08-28T04:15:25.812Z,72.91
2018-08-28T04:16:25.812Z,72.24
2018-08-28T04:17:25.792Z,71.67
2018-08-28T04:18:25.786Z,71.86
2018-08-28T04:19:25.772Z,71.57
2018-08-28T04:20:25.762Z,71.38
2018-08-28T04:21:25.751Z,71.28
2018-08-28T04:22:25.752Z,72.33
2018-08-28T04:23:25.735Z,71.86
2018-08-28T04:24:25.723Z,71.95
2018-08-28T04:25:25.712Z,72.53
2018-08-28T04:26:25.698Z,71.95
2018-08-28T04:27:25.688Z,72.14
2018-08-28T04:28:25.685Z,71.86
2018-08-28T04:29:25.673Z,72.05
2018-08-28T04:30:25.674Z,72.14
2018-08-28T04:31:25.648Z,72.43
2018-08-28T04:32:25.641Z,72.24
2018-08-28T04:33:25.623Z,72.43
2018-08-28T04:34:25.619Z,72.72
2018-08-28T04:35:25.605Z,71.95
2018-08-28T04:36:25.600Z,72.33
2018-08-28T04:37:32.488Z,71.67
2018-08-28T04:38:25.576Z,72.05
2018-08-28T04:39:25.570Z,71.95
2018-08-28T04:40:25.556Z,72.53
2018-08-28T04:41:25.551Z,72.43
2018-08-28T04:42:25.534Z,73.10
2018-08-28T04:43:25.525Z,73.29
2018-08-28T04:44:25.511Z,73.10
2018-08-28T04:45:25.500Z,72.72
2018-08-28T04:46:25.490Z,72.91
2018-08-28T04:47:25.480Z,71.86
2018-08-28T04:48:25.493Z,72.14
2018-08-28T04:49:25.460Z,72.24
2018-08-28T04:50:25.457Z,72.24
2018-08-28T04:51:25.443Z,72.43
2018-08-28T04:52:25.434Z,72.33
2018-08-28T04:53:25.415Z,71.95
2018-08-28T04:54:25.408Z,72.05
2018-08-28T04:55:25.397Z,71.76
2018-08-28T04:56:25.391Z,72.24
2018-08-28T04:57:25.379Z,71.95
2018-08-28T04:58:25.365Z,72.24
2018-08-28T04:59:25.355Z,71.47
2018-08-28T05:00:25.351Z,72.05
2018-08-28T05:01:25.340Z,71.86
2018-08-28T05:02:25.326Z,72.43
2018-08-28T05:03:25.316Z,71.86
2018-08-28T05:04:25.304Z,71.57
2018-08-28T05:05:25.292Z,71.38
2018-08-28T05:06:25.283Z,71.76
2018-08-28T05:07:25.275Z,71.57
2018-08-28T05:08:25.258Z,71.95
2018-08-28T05:09:25.264Z,72.43
2018-08-28T05:10:25.243Z,72.24
2018-08-28T05:11:25.235Z,71.86
2018-08-28T05:12:25.215Z,72.43
2018-08-28T05:13:25.205Z,72.53
2018-08-28T05:14:25.197Z,73.00
2018-08-28T05:15:25.189Z,72.91
2018-08-28T05:16:25.175Z,73.00
2018-08-28T05:17:25.168Z,73.19
2018-08-28T05:18:25.162Z,73.58
2018-08-28T05:19:25.272Z,73.77
2018-08-28T05:20:25.139Z,73.67
2018-08-28T05:21:25.129Z,74.05
2018-08-28T05:22:25.121Z,73.96
2018-08-28T05:23:25.107Z,73.67
2018-08-28T05:24:25.095Z,73.67
2018-08-28T05:25:25.082Z,73.48
2018-08-28T05:26:25.074Z,73.29
2018-08-28T05:27:25.058Z,72.62
2018-08-28T05:28:25.052Z,71.86
2018-08-28T05:29:25.083Z,71.28
2018-08-28T05:30:25.032Z,71.95
2018-08-28T05:31:25.029Z,71.95
2018-08-28T05:32:25.013Z,72.14
2018-08-28T05:33:25.001Z,72.24
2018-08-28T05:34:24.995Z,72.33
2018-08-28T05:35:24.978Z,73.00
2018-08-28T05:36:24.972Z,73.67
2018-08-28T05:37:24.958Z,73.96
2018-08-28T05:38:24.947Z,73.67
2018-08-28T05:39:24.940Z,74.05
2018-08-28T05:40:24.922Z,73.71
2018-08-28T05:41:24.918Z,73.39
2018-08-28T05:42:24.907Z,73.61
2018-08-28T05:43:24.898Z,73.14
2018-08-28T05:44:24.894Z,74.09
2018-08-28T05:45:24.877Z,74.09
2018-08-28T05:46:24.866Z,73.71
2018-08-28T05:47:24.850Z,74.09
2018-08-28T05:48:24.845Z,74.09
2018-08-28T05:49:24.923Z,73.90
2018-08-28T05:50:24.827Z,73.71
2018-08-28T05:51:24.815Z,74.09
2018-08-28T05:52:24.803Z,73.99
2018-08-28T05:53:24.790Z,74.09
2018-08-28T05:54:24.781Z,73.71
2018-08-28T05:55:24.769Z,74.09
2018-08-28T05:56:24.763Z,73.33
2018-08-28T05:57:24.746Z,73.52
2018-08-28T05:58:24.740Z,74.09
2018-08-28T05:59:24.726Z,73.99
2018-08-28T06:00:24.718Z,73.99
2018-08-28T06:01:24.714Z,74.57
2018-08-28T06:02:24.704Z,74.28
2018-08-28T06:03:24.827Z,74.38
2018-08-28T06:04:24.680Z,75.14
2018-08-28T06:05:24.669Z,74.66
2018-08-28T06:06:24.657Z,74.57
2018-08-28T06:07:24.647Z,74.48
2018-08-28T06:08:24.639Z,74.95
2018-08-28T06:09:24.625Z,74.48
2018-08-28T06:10:24.621Z,74.38
2018-08-28T06:11:24.607Z,74.57
2018-08-28T06:12:24.593Z,74.28
2018-08-28T06:13:24.589Z,74.48
2018-08-28T06:14:24.574Z,74.57
2018-08-28T06:15:24.568Z,74.95
2018-08-28T06:16:24.553Z,74.85
2018-08-28T06:17:24.539Z,74.38
2018-08-28T06:18:24.535Z,74.85
2018-08-28T06:19:24.525Z,75.34
2018-08-28T06:20:24.511Z,75.14
2018-08-28T06:21:24.502Z,74.48
2018-08-28T06:22:24.495Z,74.38
2018-08-28T06:23:24.478Z,74.38
2018-08-28T06:24:24.471Z,74.38
2018-08-28T06:25:24.456Z,74.66
2018-08-28T06:26:24.531Z,74.76
2018-08-28T06:27:24.440Z,74.48
2018-08-28T06:28:24.434Z,74.85
2018-08-28T06:29:24.421Z,75.24
2018-08-28T06:30:24.411Z,74.38
2018-08-28T06:31:24.966Z,74.38
2018-08-28T06:32:24.392Z,74.57
2018-08-28T06:33:24.381Z,74.61
2018-08-28T06:34:24.370Z,74.41
2018-08-28T06:35:24.359Z,74.70
2018-08-28T06:36:24.353Z,74.32
2018-08-28T06:37:24.360Z,74.41
2018-08-28T06:38:24.338Z,74.22
2018-08-28T06:39:24.323Z,73.59
2018-08-28T06:40:24.303Z,74.07
2018-08-28T06:41:24.298Z,73.59
2018-08-28T06:42:24.284Z,72.83
2018-08-28T06:43:24.284Z,72.92
2018-08-28T06:44:24.267Z,72.09
2018-08-28T06:45:24.266Z,71.91
2018-08-28T06:46:24.252Z,71.62
2018-08-28T06:47:24.240Z,71.23
2018-08-28T06:48:24.230Z,71.14
2018-08-28T06:49:24.249Z,70.76
2018-08-28T06:50:24.208Z,70.66
2018-08-28T06:51:24.201Z,70.31
2018-08-28T06:52:24.191Z,70.21
2018-08-28T06:53:24.180Z,70.41
2018-08-28T06:54:24.171Z,70.31
2018-08-28T06:55:24.166Z,70.21
2018-08-28T06:56:24.149Z,69.93
2018-08-28T06:57:24.137Z,69.83
2018-08-28T06:58:24.129Z,70.06
2018-08-28T06:59:24.121Z,69.58
2018-08-28T07:00:24.114Z,69.68
2018-08-28T07:01:24.101Z,69.20
2018-08-28T07:02:24.150Z,69.20
2018-08-28T07:03:24.084Z,69.10
2018-08-28T07:04:24.076Z,68.66
2018-08-28T07:05:24.069Z,68.66
2018-08-28T07:06:24.054Z,68.46
2018-08-28T07:07:24.042Z,68.56
2018-08-28T07:08:24.036Z,68.27
2018-08-28T07:09:24.023Z,68.27
2018-08-28T07:10:24.092Z,68.18
2018-08-28T07:11:24.012Z,68.37
2018-08-28T07:12:23.997Z,67.92
2018-08-28T07:13:23.987Z,68.08
2018-08-28T07:14:23.977Z,67.54
2018-08-28T07:15:23.969Z,67.54
2018-08-28T07:16:23.963Z,68.02
2018-08-28T07:17:23.948Z,67.44
2018-08-28T07:18:23.943Z,67.16
2018-08-28T07:19:23.932Z,67.16
2018-08-28T07:20:23.924Z,67.35
2018-08-28T07:21:23.907Z,67.06
2018-08-28T07:22:23.908Z,67.44
2018-08-28T07:23:23.897Z,66.61
2018-08-28T07:24:23.888Z,66.52
2018-08-28T07:25:23.882Z,66.52
2018-08-28T07:26:23.871Z,66.42
2018-08-28T07:27:23.862Z,66.61
2018-08-28T07:28:23.848Z,66.52
2018-08-28T07:29:23.844Z,66.61
2018-08-28T07:30:23.834Z,65.97
2018-08-28T07:31:23.863Z,65.69
2018-08-28T07:32:23.822Z,65.78
2018-08-28T07:33:23.809Z,65.78
2018-08-28T07:34:23.802Z,65.88
2018-08-28T07:35:23.799Z,66.07
2018-08-28T07:36:23.784Z,66.46
2018-08-28T07:37:23.784Z,65.97
2018-08-28T07:38:23.767Z,66.07
2018-08-28T07:39:23.753Z,65.91
2018-08-28T07:40:23.745Z,65.81
2018-08-28T07:41:23.737Z,66.00
2018-08-28T07:42:23.733Z,66.39
2018-08-28T07:43:23.722Z,65.62
2018-08-28T07:44:23.714Z,65.62
2018-08-28T07:45:23.708Z,65.81
2018-08-28T07:46:23.697Z,66.10
2018-08-28T07:47:23.688Z,65.81
2018-08-28T07:48:23.742Z,66.68
2018-08-28T07:49:23.670Z,67.19
2018-08-28T07:50:23.666Z,65.94
2018-08-28T07:51:23.659Z,65.84
2018-08-28T07:52:23.652Z,64.79
2018-08-28T07:53:23.635Z,64.98
2018-08-28T07:54:23.629Z,65.75
2018-08-28T07:55:23.620Z,66.04
2018-08-28T07:56:23.618Z,64.89
2018-08-28T07:57:23.607Z,64.82
2018-08-28T07:58:23.598Z,65.88
2018-08-28T07:59:23.591Z,66.65
2018-08-28T08:00:23.582Z,67.22
2018-08-28T08:01:23.611Z,65.97
2018-08-28T08:02:23.569Z,66.07
2018-08-28T08:03:23.557Z,66.07
2018-08-28T08:04:23.554Z,65.01
2018-08-28T08:05:23.540Z,64.73
2018-08-28T08:06:23.531Z,64.92
2018-08-28T08:07:23.523Z,64.73
2018-08-28T08:08:23.519Z,65.11
2018-08-28T08:09:23.506Z,64.66
2018-08-28T08:10:23.564Z,64.28
2018-08-28T08:11:23.491Z,64.56
2018-08-28T08:12:23.493Z,64.28
2018-08-28T08:13:23.473Z,62.26
2018-08-28T08:14:23.470Z,63.02
2018-08-28T08:15:23.461Z,62.38
2018-08-28T08:16:23.457Z,62.09
2018-08-28T08:17:23.443Z,62.19
2018-08-28T08:18:23.437Z,61.52
2018-08-28T08:19:23.429Z,59.78
2018-08-28T08:20:23.424Z,58.05
2018-08-28T08:21:23.419Z,57.09
2018-08-28T08:22:23.461Z,56.90
2018-08-28T08:23:23.400Z,56.99
2018-08-28T08:24:23.395Z,57.37
2018-08-28T08:25:23.388Z,56.80
2018-08-28T08:26:23.379Z,56.51
2018-08-28T08:27:23.373Z,56.60
2018-08-28T08:28:23.433Z,56.99
2018-08-28T08:29:23.355Z,56.60
2018-08-28T08:30:23.348Z,57.37
2018-08-28T08:31:23.348Z,57.12
2018-08-28T08:32:23.334Z,56.54
2018-08-28T08:33:23.322Z,56.92
2018-08-28T08:34:23.318Z,55.93
2018-08-28T08:35:23.417Z,56.41
2018-08-28T08:36:23.304Z,56.99
2018-08-28T08:37:23.295Z,56.90
2018-08-28T08:38:23.293Z,56.51
2018-08-28T08:39:23.287Z,56.90
2018-08-28T08:40:23.275Z,56.22
2018-08-28T08:41:23.305Z,55.83
2018-08-28T08:42:23.263Z,55.65
2018-08-28T08:43:23.255Z,55.55
2018-08-28T08:44:23.243Z,56.03
2018-08-28T08:45:23.238Z,56.32
2018-08-28T08:46:23.230Z,57.79
2018-08-28T08:47:23.230Z,55.26
2018-08-28T08:48:23.220Z,54.32
2018-08-28T08:49:23.208Z,53.05
2018-08-28T08:50:23.200Z,52.08
2018-08-28T08:51:23.194Z,52.47
2018-08-28T08:52:23.188Z,52.97
2018-08-28T08:53:23.183Z,54.00
2018-08-28T08:54:23.173Z,54.22
2018-08-28T08:55:23.169Z,52.30
2018-08-28T08:56:23.158Z,51.21
2018-08-28T08:57:23.217Z,51.02
2018-08-28T08:58:23.146Z,50.66
2018-08-28T08:59:23.136Z,50.35
2018-08-28T09:00:23.131Z,49.79
2018-08-28T09:01:23.120Z,51.14
2018-08-28T09:02:23.120Z,51.43
2018-08-28T09:03:23.108Z,51.53
2018-08-28T09:04:23.102Z,51.24
2018-08-28T09:05:23.098Z,51.53
2018-08-28T09:06:23.089Z,51.84
2018-08-28T09:07:23.089Z,52.04
2018-08-28T09:08:23.082Z,53.09
2018-08-28T09:09:23.067Z,53.19
2018-08-28T09:10:23.057Z,54.25
2018-08-28T09:11:23.049Z,53.00
2018-08-28T09:12:23.058Z,52.23
2018-08-28T09:13:23.079Z,50.59
2018-08-28T09:14:23.034Z,51.84
2018-08-28T09:15:23.024Z,50.11
2018-08-28T09:16:23.019Z,51.29
2018-08-28T09:17:23.008Z,52.35
2018-08-28T09:18:23.000Z,52.06
2018-08-28T09:19:23.077Z,53.41
2018-08-28T09:20:22.986Z,53.03
2018-08-28T09:21:22.981Z,52.19
2018-08-28T09:22:22.978Z,50.74
2018-08-28T09:23:22.970Z,51.32
2018-08-28T09:24:22.959Z,50.32
2018-08-28T09:25:22.951Z,49.84
2018-08-28T09:26:22.949Z,50.35
2018-08-28T09:27:22.943Z,52.28
2018-08-28T09:28:22.935Z,50.74
2018-08-28T09:29:22.926Z,51.12
2018-08-28T09:30:22.923Z,50.35
2018-08-28T09:31:22.922Z,50.06
2018-08-28T09:32:22.926Z,49.96
2018-08-28T09:33:22.907Z,52.37
2018-08-28T09:34:22.895Z,51.63
2018-08-28T09:35:22.892Z,50.26
2018-08-28T09:36:22.881Z,49.68
2018-08-28T09:37:22.879Z,50.35
2018-08-28T09:38:22.875Z,51.32
2018-08-28T09:39:22.865Z,52.59
2018-08-28T09:40:22.858Z,50.47
2018-08-28T09:41:22.845Z,49.70
2018-08-28T09:42:22.852Z,50.28
2018-08-28T09:43:22.839Z,50.67
2018-08-28T09:44:22.828Z,50.57
2018-08-28T09:45:22.823Z,48.74
2018-08-28T09:46:22.816Z,48.93
2018-08-28T09:47:22.815Z,48.83
2018-08-28T09:48:22.872Z,49.12
2018-08-28T09:49:22.803Z,49.22
2018-08-28T09:50:22.876Z,49.02
2018-08-28T09:51:22.787Z,50.09
2018-08-28T09:52:22.778Z,48.83
2018-08-28T09:53:22.768Z,48.83
2018-08-28T09:54:22.764Z,49.02
2018-08-28T09:55:22.763Z,49.44
2018-08-28T09:56:22.750Z,48.74
2018-08-28T09:57:22.752Z,49.24
2018-08-28T09:58:22.741Z,48.76
2018-08-28T09:59:22.732Z,51.46
2018-08-28T10:00:22.731Z,48.76
2018-08-28T10:01:22.721Z,50.89
2018-08-28T10:02:22.715Z,51.85
2018-08-28T10:03:22.710Z,49.82
2018-08-28T10:04:22.701Z,48.97
2018-08-28T10:05:22.696Z,49.85
2018-08-28T10:06:22.691Z,45.98
2018-08-28T10:07:22.680Z,45.31
2018-08-28T10:08:22.684Z,44.92
2018-08-28T10:09:22.668Z,43.66
2018-08-28T10:10:22.665Z,43.64
2018-08-28T10:11:22.658Z,43.95
2018-08-28T10:12:22.659Z,44.34
2018-08-28T10:13:22.646Z,44.34
2018-08-28T10:14:22.647Z,44.92
2018-08-28T10:15:22.636Z,46.47
2018-08-28T10:16:22.628Z,46.95
2018-08-28T10:17:22.641Z,45.91
2018-08-28T10:18:22.618Z,48.23
2018-08-28T10:19:22.618Z,47.07
2018-08-28T10:20:22.604Z,45.62
2018-08-28T10:21:22.595Z,45.72
2018-08-28T10:22:22.602Z,46.97
2018-08-28T10:23:22.589Z,47.45
2018-08-28T10:24:22.584Z,47.55
2018-08-28T10:25:22.575Z,49.39
2018-08-28T10:26:22.571Z,48.71
2018-08-28T10:27:22.567Z,49.19
2018-08-28T10:28:22.557Z,50.55
2018-08-28T10:29:22.556Z,50.76
2018-08-28T10:30:22.634Z,50.48
2018-08-28T10:31:22.544Z,48.64
2018-08-28T10:32:22.537Z,47.58
2018-08-28T10:33:22.527Z,47.09
2018-08-28T10:34:22.525Z,49.22
2018-08-28T10:35:22.516Z,47.00
2018-08-28T10:36:22.512Z,47.48
2018-08-28T10:37:22.510Z,46.51
2018-08-28T10:38:22.504Z,48.54
2018-08-28T10:39:22.495Z,48.25
2018-08-28T10:40:22.496Z,48.06
2018-08-28T10:41:22.491Z,47.38
2018-08-28T10:42:22.492Z,48.76
2018-08-28T10:43:22.477Z,47.09
2018-08-28T10:44:22.467Z,46.80
2018-08-28T10:45:22.464Z,47.00
2018-08-28T10:46:22.525Z,47.67
2018-08-28T10:47:22.449Z,47.38
2018-08-28T10:48:22.445Z,48.44
2018-08-28T10:49:22.440Z,47.99
2018-08-28T10:50:22.437Z,48.47
2018-08-28T10:51:22.428Z,46.83
2018-08-28T10:52:22.424Z,46.05
2018-08-28T10:53:22.424Z,47.31
2018-08-28T10:54:22.417Z,47.50
2018-08-28T10:55:22.406Z,45.95
2018-08-28T10:56:22.401Z,45.66
2018-08-28T10:57:22.402Z,46.05
2018-08-28T10:58:22.386Z,46.63
2018-08-28T10:59:22.399Z,45.66
2018-08-28T11:00:22.380Z,45.66
2018-08-28T11:01:22.385Z,44.98
2018-08-28T11:02:22.376Z,44.89
2018-08-28T11:03:22.364Z,45.01
2018-08-28T11:04:22.396Z,44.53
2018-08-28T11:05:22.360Z,44.04
2018-08-28T11:06:22.347Z,43.85
2018-08-28T11:07:22.340Z,44.43
2018-08-28T11:08:22.343Z,44.13
2018-08-28T11:09:22.335Z,44.13
2018-08-28T11:10:22.327Z,43.46
2018-08-28T11:11:22.323Z,44.62
2018-08-28T11:12:22.323Z,44.35
2018-08-28T11:13:22.313Z,43.68
2018-08-28T11:14:22.307Z,43.68
2018-08-28T11:15:22.304Z,44.93
2018-08-28T11:16:22.297Z,45.90
2018-08-28T11:17:22.291Z,45.03
2018-08-28T11:18:22.287Z,44.16
2018-08-28T11:19:22.280Z,44.54
2018-08-28T11:20:22.281Z,45.03
2018-08-28T11:21:22.278Z,43.58
2018-08-28T11:22:22.356Z,44.57
2018-08-28T11:23:22.264Z,44.27
2018-08-28T11:24:22.261Z,44.37
2018-08-28T11:25:22.247Z,42.14
2018-08-28T11:26:22.248Z,42.44
2018-08-28T11:27:22.245Z,44.18
2018-08-28T11:28:22.239Z,43.12
2018-08-28T11:29:22.235Z,42.92
2018-08-28T11:30:22.228Z,42.05
2018-08-28T11:31:22.272Z,40.69
2018-08-28T11:32:22.234Z,42.34
2018-08-28T11:33:22.216Z,42.14
2018-08-28T11:34:22.209Z,43.33
2018-08-28T11:35:22.209Z,43.13
2018-08-28T11:36:22.202Z,42.46
2018-08-28T11:37:22.195Z,41.49
2018-08-28T11:38:22.205Z,41.10
2018-08-28T11:39:22.248Z,44.68
2018-08-28T11:40:22.179Z,42.85
2018-08-28T11:41:22.183Z,41.58
2018-08-28T11:42:22.177Z,41.10
2018-08-28T11:43:22.169Z,41.30
2018-08-28T11:44:22.162Z,41.22
2018-08-28T11:45:22.158Z,42.09
2018-08-28T11:46:22.153Z,41.00
2018-08-28T11:47:22.153Z,40.42
2018-08-28T11:48:22.165Z,40.33
2018-08-28T11:49:22.141Z,39.84
2018-08-28T11:50:22.135Z,40.42
2018-08-28T11:51:22.129Z,41.00
2018-08-28T11:52:22.131Z,41.97
2018-08-28T11:53:22.140Z,42.17
2018-08-28T11:54:22.117Z,40.64
2018-08-28T11:55:22.117Z,40.61
2018-08-28T11:56:22.109Z,41.12
2018-08-28T11:57:22.114Z,41.99
2018-08-28T11:58:22.104Z,43.26
2018-08-28T11:59:22.098Z,43.45
2018-08-28T12:00:22.098Z,41.89
2018-08-28T12:01:22.090Z,42.29
2018-08-28T12:02:22.084Z,42.19
2018-08-28T12:03:22.082Z,42.77
2018-08-28T12:04:22.077Z,39.67
2018-08-28T12:05:22.126Z,38.31
2018-08-28T12:06:22.065Z,38.31
2018-08-28T12:07:22.124Z,38.91
2018-08-28T12:08:22.061Z,38.71
2018-08-28T12:09:22.052Z,38.04
2018-08-28T12:10:22.052Z,39.78
2018-08-28T12:11:22.039Z,38.32
2018-08-28T12:12:22.047Z,38.23
2018-08-28T12:13:22.042Z,37.74
2018-08-28T12:14:22.035Z,38.42
2018-08-28T12:15:22.029Z,39.11
2018-08-28T12:16:22.033Z,38.44
2018-08-28T12:17:22.021Z,38.15
2018-08-28T12:18:22.018Z,38.64
2018-08-28T12:19:22.024Z,39.22
2018-08-28T12:20:22.069Z,40.19
2018-08-28T12:21:22.008Z,39.90
2018-08-28T12:22:22.008Z,39.51
2018-08-28T12:23:21.996Z,41.18
2018-08-28T12:24:22.000Z,39.90
2018-08-28T12:25:21.993Z,39.90
2018-08-28T12:26:21.981Z,40.87
2018-08-28T12:27:21.987Z,40.99
2018-08-28T12:28:21.984Z,40.11
2018-08-28T12:29:21.976Z,39.82
2018-08-28T12:30:21.977Z,38.95
2018-08-28T12:31:21.966Z,39.34
2018-08-28T12:32:21.963Z,42.54
2018-08-28T12:33:21.964Z,40.99
2018-08-28T12:34:21.954Z,39.16
2018-08-28T12:35:21.958Z,39.45
2018-08-28T12:36:21.950Z,39.16
2018-08-28T12:37:21.948Z,38.96
2018-08-28T12:38:21.943Z,41.39
2018-08-28T12:39:21.938Z,38.57
2018-08-28T12:40:21.940Z,38.87
2018-08-28T12:41:21.934Z,40.03
2018-08-28T12:42:21.928Z,39.16
2018-08-28T12:43:21.933Z,38.57
2018-08-28T12:44:21.921Z,38.46
2018-08-28T12:45:21.919Z,39.84
2018-08-28T12:46:21.918Z,39.65
2018-08-28T12:47:21.908Z,38.96
2018-08-28T12:48:21.907Z,40.91
2018-08-28T12:49:21.897Z,40.33
2018-08-28T12:50:21.903Z,39.55
2018-08-28T12:51:22.178Z,39.18
2018-08-28T12:52:21.901Z,40.23